Time;durP1;ratioP1;P1;durP2;ratioP2;P2;SDS_P1;SDS_P2;PMS_P1;PMS_P2;Temp;Humidity;BMP_temperature;BMP_pressure;BME280_temperature;BME280_humidity;BME280_pressure;Samples;Min_cycle;Max_cycle;Signal;HPM_P1;HPM_P2
2022/10/02 00:01:18;;;;;;;2.33;1.40;;;11.80;99.90;;;;;;5039366;28;20440;-46
2022/10/02 00:03:46;;;;;;;2.50;1.67;;;11.80;99.90;;;;;;5038941;28;20805;-48
2022/10/02 00:06:19;;;;;;;3.10;1.83;;;11.80;99.90;;;;;;5039044;28;20530;-46
2022/10/02 00:08:48;;;;;;;4.20;1.40;;;11.90;99.90;;;;;;5039178;28;20801;-46
2022/10/02 00:11:20;;;;;;;1.57;1.30;;;11.90;99.90;;;;;;5038933;28;20471;-49
2022/10/02 00:13:51;;;;;;;5.23;2.23;;;11.90;99.90;;;;;;5039155;28;20480;-53
2022/10/02 00:16:32;;;;;;;2.00;1.73;;;11.90;99.90;;;;;;5038754;28;20563;-49
2022/10/02 00:18:59;;;;;;;4.50;1.80;;;12.00;99.90;;;;;;5038735;28;20477;-46
2022/10/02 00:21:41;;;;;;;7.67;1.90;;;12.00;99.90;;;;;;5038847;28;20428;-46
2022/10/02 00:24:13;;;;;;;4.23;1.87;;;12.00;99.90;;;;;;5038310;28;20433;-44
2022/10/02 00:26:47;;;;;;;2.07;1.37;;;12.00;99.90;;;;;;5038817;28;20440;-45
2022/10/02 00:29:32;;;;;;;1.67;1.27;;;12.00;99.90;;;;;;5039039;28;20433;-47
2022/10/02 00:32:15;;;;;;;1.93;1.30;;;12.00;99.90;;;;;;5038405;28;20818;-48
2022/10/02 00:34:56;;;;;;;7.73;1.67;;;12.00;99.90;;;;;;5038633;28;20428;-45
2022/10/02 00:37:34;;;;;;;7.80;1.67;;;12.10;99.90;;;;;;5038232;28;20491;-48
2022/10/02 00:40:13;;;;;;;6.30;1.57;;;12.00;99.90;;;;;;5038614;28;20456;-48
2022/10/02 00:43:05;;;;;;;2.60;1.30;;;12.00;99.90;;;;;;5038725;28;20483;-49
2022/10/02 00:46:01;;;;;;;2.07;1.27;;;12.00;99.90;;;;;;5038709;28;20433;-46
2022/10/02 00:48:47;;;;;;;2.47;1.60;;;12.10;99.90;;;;;;5038310;28;20575;-43
2022/10/02 00:51:41;;;;;;;3.33;1.13;;;12.00;99.90;;;;;;5038569;28;20634;-45
2022/10/02 00:54:20;;;;;;;1.50;1.27;;;12.10;99.90;;;;;;5038238;28;20494;-47
2022/10/02 00:57:01;;;;;;;6.07;1.60;;;12.10;99.90;;;;;;5038473;28;20475;-49
2022/10/02 00:59:50;;;;;;;2.07;1.23;;;12.10;99.90;;;;;;5038799;28;20460;-43
2022/10/02 01:02:44;;;;;;;4.30;1.40;;;12.10;99.90;;;;;;5038660;28;20442;-48
2022/10/02 01:05:13;;;;;;;8.07;1.80;;;12.10;99.90;;;;;;5038776;28;20551;-47
2022/10/02 01:07:43;;;;;;;3.73;1.63;;;12.00;99.90;;;;;;5037658;28;20467;-45
2022/10/02 01:10:13;;;;;;;6.70;1.90;;;12.10;99.90;;;;;;5037822;28;20508;-44
2022/10/02 01:12:41;;;;;;;3.23;1.50;;;12.00;99.90;;;;;;5037782;28;20527;-47
2022/10/02 01:15:12;;;;;;;3.83;1.97;;;12.00;99.90;;;;;;5037482;28;20483;-43
2022/10/02 01:17:39;;;;;;;7.40;1.50;;;12.00;99.90;;;;;;5037600;28;20471;-46
2022/10/02 01:20:16;;;;;;;1.63;1.10;;;12.00;99.90;;;;;;5037630;28;20472;-45
2022/10/02 01:23:04;;;;;;;3.23;1.60;;;11.90;99.90;;;;;;5037614;28;20440;-51
2022/10/02 01:25:32;;;;;;;2.17;1.50;;;11.90;99.90;;;;;;5038057;28;20428;-47
2022/10/02 01:28:01;;;;;;;4.20;2.13;;;11.80;99.90;;;;;;5037630;28;20435;-44
2022/10/02 01:30:29;;;;;;;2.60;1.63;;;11.80;99.90;;;;;;5037822;28;20938;-47
2022/10/02 01:32:59;;;;;;;4.07;1.63;;;11.80;99.90;;;;;;5037992;28;20456;-46
2022/10/02 01:35:30;;;;;;;2.80;1.10;;;11.80;99.90;;;;;;5037919;28;20476;-48
2022/10/02 01:37:58;;;;;;;10.73;1.90;;;11.80;99.90;;;;;;5038035;28;20844;-44
2022/10/02 01:40:28;;;;;;;3.30;1.20;;;11.70;99.90;;;;;;5037488;28;20642;-49
2022/10/02 01:42:59;;;;;;;5.03;1.87;;;11.70;99.90;;;;;;5037517;28;20472;-45
2022/10/02 01:45:40;;;;;;;2.27;1.47;;;11.70;99.90;;;;;;5020640;28;20439;-46
2022/10/02 01:48:16;;;;;;;3.33;1.87;;;11.70;99.90;;;;;;5037610;28;20979;-44
2022/10/02 01:50:54;;;;;;;7.37;1.70;;;11.70;99.90;;;;;;5037144;28;20756;-49
2022/10/02 01:53:28;;;;;;;10.73;1.77;;;11.70;99.90;;;;;;5036947;28;20527;-47
2022/10/02 01:56:05;;;;;;;8.13;1.97;;;11.60;99.90;;;;;;5036308;28;20952;-47
2022/10/02 01:58:44;;;;;;;8.83;2.20;;;11.60;99.90;;;;;;5037336;28;20432;-46
2022/10/02 02:01:17;;;;;;;7.47;1.70;;;11.60;99.90;;;;;;5037849;28;20467;-46
2022/10/02 02:03:55;;;;;;;6.47;1.87;;;11.60;99.90;;;;;;5037074;28;20440;-49
2022/10/02 02:06:29;;;;;;;4.33;1.53;;;11.60;99.90;;;;;;5036588;28;20452;-46
2022/10/02 02:09:06;;;;;;;4.30;1.20;;;11.60;99.90;;;;;;5037206;28;20436;-46
2022/10/02 02:11:35;;;;;;;7.03;1.63;;;11.60;99.90;;;;;;5036734;28;20482;-50
2022/10/02 02:14:07;;;;;;;2.80;1.67;;;11.60;99.90;;;;;;5036467;28;20531;-44
2022/10/02 02:16:40;;;;;;;3.60;1.50;;;11.60;99.90;;;;;;5036620;28;20479;-45
2022/10/02 02:19:12;;;;;;;7.10;1.90;;;11.60;99.90;;;;;;5036670;28;20784;-47
2022/10/02 02:21:42;;;;;;;2.07;1.30;;;11.50;99.90;;;;;;5036636;28;20479;-46
2022/10/02 02:24:13;;;;;;;3.30;1.53;;;11.50;99.90;;;;;;5037051;28;20448;-46
2022/10/02 02:26:52;;;;;;;6.87;1.50;;;11.50;99.90;;;;;;5036504;28;20817;-45
2022/10/02 02:29:22;;;;;;;6.17;1.57;;;11.60;99.90;;;;;;5036403;28;20440;-47
2022/10/02 02:31:53;;;;;;;9.07;1.20;;;11.50;99.90;;;;;;5036634;28;20455;-46
2022/10/02 02:34:23;;;;;;;3.53;1.97;;;11.50;99.90;;;;;;5037761;28;20538;-41
2022/10/02 02:36:55;;;;;;;2.77;1.47;;;11.50;99.90;;;;;;5037405;28;20472;-44
2022/10/02 02:39:26;;;;;;;2.70;1.30;;;11.50;99.90;;;;;;5037842;28;20440;-41
2022/10/02 02:41:59;;;;;;;2.93;1.27;;;11.50;99.90;;;;;;5037902;28;20447;-43
2022/10/02 02:44:31;;;;;;;7.07;1.67;;;11.50;99.90;;;;;;5038011;28;20468;-44
2022/10/02 02:47:06;;;;;;;8.43;1.70;;;11.40;99.90;;;;;;5037572;28;20431;-44
2022/10/02 02:49:48;;;;;;;4.87;1.57;;;11.40;99.90;;;;;;5037527;28;20956;-42
2022/10/02 02:52:27;;;;;;;6.67;1.60;;;11.40;99.90;;;;;;5037642;28;20421;-43
2022/10/02 02:55:02;;;;;;;8.30;1.63;;;11.40;99.90;;;;;;5037464;28;20486;-42
2022/10/02 02:57:45;;;;;;;2.83;1.73;;;11.40;99.90;;;;;;5037288;28;20463;-41
2022/10/02 03:00:15;;;;;;;4.20;1.40;;;11.40;99.90;;;;;;5037082;28;20472;-43
2022/10/02 03:02:42;;;;;;;13.17;2.23;;;11.40;99.90;;;;;;5037104;28;20445;-46
2022/10/02 03:05:13;;;;;;;3.33;1.77;;;11.40;99.90;;;;;;5037074;28;20466;-42
2022/10/02 03:07:49;;;;;;;7.07;1.80;;;11.40;99.90;;;;;;5040699;28;20425;-44
2022/10/02 03:10:22;;;;;;;7.30;1.90;;;11.40;99.90;;;;;;5040587;28;20443;-43
2022/10/02 03:12:58;;;;;;;4.23;2.10;;;11.40;99.90;;;;;;5040526;28;20471;-44
2022/10/02 03:15:36;;;;;;;6.53;1.90;;;11.30;99.90;;;;;;5040489;28;20432;-42
2022/10/02 03:18:26;;;;;;;3.33;1.50;;;11.30;99.90;;;;;;5040179;28;20494;-46
2022/10/02 03:21:03;;;;;;;12.20;2.10;;;11.20;99.90;;;;;;5040585;28;20428;-43
2022/10/02 03:23:36;;;;;;;7.50;1.93;;;11.20;99.90;;;;;;5041292;28;20468;-44
2022/10/02 03:26:08;;;;;;;4.20;1.60;;;11.20;99.90;;;;;;5041057;28;20424;-47
2022/10/02 03:28:43;;;;;;;3.10;1.57;;;11.20;99.90;;;;;;5041489;28;20476;-44
2022/10/02 03:31:30;;;;;;;2.97;2.13;;;11.20;99.90;;;;;;5041284;28;20424;-41
2022/10/02 03:33:58;;;;;;;3.40;1.10;;;11.20;99.90;;;;;;5040586;28;20476;-42
2022/10/02 03:36:25;;;;;;;4.80;2.30;;;11.20;99.90;;;;;;5040752;28;20549;-42
2022/10/02 03:38:55;;;;;;;5.43;1.13;;;11.20;99.90;;;;;;5040583;28;20472;-44
2022/10/02 03:41:21;;;;;;;5.17;1.40;;;11.20;99.90;;;;;;5040445;28;20874;-45
2022/10/02 03:43:48;;;;;;;1.97;1.40;;;11.20;99.90;;;;;;5040694;28;20448;-41
2022/10/02 03:46:15;;;;;;;4.43;1.20;;;11.20;99.90;;;;;;5040909;28;20458;-42
2022/10/02 03:48:43;;;;;;;6.47;2.10;;;11.20;99.90;;;;;;5041056;28;20448;-42
2022/10/02 03:51:10;;;;;;;4.97;2.07;;;11.20;99.90;;;;;;5040772;28;20976;-43
2022/10/02 03:53:36;;;;;;;2.80;1.93;;;11.20;99.90;;;;;;5040753;28;20452;-41
2022/10/02 03:56:07;;;;;;;6.30;2.03;;;11.20;99.90;;;;;;5040480;28;20478;-46
2022/10/02 03:58:37;;;;;;;7.33;1.70;;;11.20;99.90;;;;;;5040929;28;20433;-41
2022/10/02 04:01:20;;;;;;;4.73;1.50;;;11.20;99.90;;;;;;5040405;28;20455;-44
2022/10/02 04:03:53;;;;;;;2.53;1.60;;;11.20;99.90;;;;;;5040462;28;20439;-39
2022/10/02 04:06:25;;;;;;;4.43;1.50;;;11.20;99.90;;;;;;5032978;28;20457;-41
2022/10/02 04:08:57;;;;;;;5.43;2.10;;;11.20;99.90;;;;;;5023016;28;20447;-45
2022/10/02 04:11:31;;;;;;;2.77;1.50;;;11.20;99.90;;;;;;5020460;28;20429;-44
2022/10/02 04:14:05;;;;;;;3.23;1.30;;;11.20;99.90;;;;;;5021399;28;20834;-40
2022/10/02 04:16:37;;;;;;;9.40;1.43;;;11.10;99.90;;;;;;5021015;28;20471;-47
2022/10/02 04:19:11;;;;;;;3.33;1.50;;;11.20;99.90;;;;;;5019525;28;20955;-43
2022/10/02 04:21:43;;;;;;;11.23;2.40;;;11.20;99.90;;;;;;5017669;28;20548;-43
2022/10/02 04:24:17;;;;;;;5.83;1.63;;;11.20;99.90;;;;;;5019545;28;20476;-44
2022/10/02 04:26:58;;;;;;;2.57;1.33;;;11.20;99.90;;;;;;5019864;28;20459;-44
2022/10/02 04:29:31;;;;;;;1.60;1.23;;;11.20;99.90;;;;;;5019866;28;20853;-43
2022/10/02 04:32:07;;;;;;;2.57;1.53;;;11.20;99.90;;;;;;5019032;28;20452;-42
2022/10/02 04:34:36;;;;;;;12.57;1.77;;;11.20;99.90;;;;;;5019353;28;20773;-48
2022/10/02 04:37:20;;;;;;;2.33;1.60;;;11.20;99.90;;;;;;5019467;28;20547;-42
2022/10/02 04:40:04;;;;;;;2.27;1.63;;;11.30;99.90;;;;;;5019650;28;20604;-44
2022/10/02 04:42:44;;;;;;;2.60;1.30;;;11.30;99.90;;;;;;5018853;28;20464;-47
2022/10/02 04:45:29;;;;;;;9.23;1.83;;;11.30;99.90;;;;;;5019050;28;20519;-42
2022/10/02 04:48:31;;;;;;;3.70;1.33;;;11.40;99.90;;;;;;5019305;28;20754;-39
2022/10/02 04:51:07;;;;;;;4.03;1.30;;;11.30;99.90;;;;;;5019106;28;20451;-42
2022/10/02 04:53:58;;;;;;;3.17;1.50;;;11.40;99.90;;;;;;5019006;28;20451;-41
2022/10/02 04:56:42;;;;;;;4.40;1.70;;;11.40;99.90;;;;;;5018950;28;20437;-47
2022/10/02 04:59:32;;;;;;;4.00;1.60;;;11.40;99.90;;;;;;5019335;28;20453;-41
2022/10/02 05:02:23;;;;;;;2.83;1.30;;;11.50;99.90;;;;;;5019516;28;20758;-40
2022/10/02 05:05:14;;;;;;;6.40;2.33;;;11.50;99.90;;;;;;5019169;28;20758;-45
2022/10/02 05:07:54;;;;;;;3.57;2.00;;;11.50;99.90;;;;;;5018955;28;20425;-42
2022/10/02 05:10:43;;;;;;;3.47;1.40;;;11.60;99.90;;;;;;5019174;28;20433;-45
2022/10/02 05:13:28;;;;;;;4.83;1.27;;;11.60;99.90;;;;;;5015946;28;20461;-43
2022/10/02 05:16:08;;;;;;;9.67;1.53;;;11.60;99.90;;;;;;5018448;28;20452;-41
2022/10/02 05:18:51;;;;;;;2.70;1.63;;;11.60;99.90;;;;;;5018176;28;20484;-46
2022/10/02 05:21:30;;;;;;;2.83;1.30;;;11.70;99.90;;;;;;5018348;28;20887;-46
2022/10/02 05:24:21;;;;;;;1.80;1.23;;;11.70;99.90;;;;;;5019303;28;20429;-44
2022/10/02 05:27:11;;;;;;;4.03;1.77;;;11.70;99.90;;;;;;5018043;28;20437;-42
2022/10/02 05:30:00;;;;;;;2.93;1.40;;;11.70;99.90;;;;;;5017466;28;20438;-46
2022/10/02 05:32:54;;;;;;;2.23;1.33;;;11.60;99.90;;;;;;5018378;28;20491;-42
2022/10/02 05:35:36;;;;;;;2.50;1.10;;;11.60;99.90;;;;;;5017792;28;20456;-41
2022/10/02 05:38:13;;;;;;;4.03;1.40;;;11.60;99.90;;;;;;5018452;28;20476;-46
2022/10/02 05:40:50;;;;;;;4.20;1.10;;;11.60;99.90;;;;;;5018257;28;20452;-41
2022/10/02 05:43:31;;;;;;;9.63;2.60;;;11.50;99.90;;;;;;5017762;28;20459;-40
2022/10/02 05:46:03;;;;;;;3.97;1.10;;;11.50;99.90;;;;;;5017802;28;20499;-41
2022/10/02 05:48:37;;;;;;;3.00;1.50;;;11.50;99.90;;;;;;5017948;28;20429;-42
2022/10/02 05:51:10;;;;;;;5.50;1.67;;;11.60;99.90;;;;;;5019307;28;20572;-41
2022/10/02 05:53:41;;;;;;;8.30;1.50;;;11.60;99.90;;;;;;5017190;28;20465;-44
2022/10/02 05:56:15;;;;;;;1.30;1.20;;;11.60;99.90;;;;;;5019541;28;20436;-44
2022/10/02 05:58:50;;;;;;;2.00;1.33;;;11.70;99.90;;;;;;5019444;28;20512;-47
2022/10/02 06:01:21;;;;;;;2.40;1.60;;;11.70;99.90;;;;;;5020935;28;20449;-45
2022/10/02 06:03:55;;;;;;;3.40;1.47;;;11.80;99.90;;;;;;5024830;28;20805;-44
2022/10/02 06:06:30;;;;;;;6.70;1.43;;;11.90;99.90;;;;;;5028753;28;20432;-42
2022/10/02 06:09:02;;;;;;;4.70;1.40;;;12.00;99.90;;;;;;5030713;28;20456;-42
2022/10/02 06:11:35;;;;;;;2.67;1.57;;;12.20;99.90;;;;;;5029690;28;20432;-41
2022/10/02 06:14:09;;;;;;;2.23;1.63;;;12.30;99.90;;;;;;5020571;28;20469;-40
2022/10/02 06:16:41;;;;;;;4.23;1.73;;;12.30;99.90;;;;;;5017174;28;20461;-40
2022/10/02 06:19:12;;;;;;;2.37;1.70;;;12.30;99.90;;;;;;5030720;28;20468;-48
2022/10/02 06:21:45;;;;;;;7.77;1.70;;;12.30;99.90;;;;;;5015233;28;20479;-42
2022/10/02 06:24:23;;;;;;;3.33;1.67;;;12.40;99.90;;;;;;5021381;28;20924;-47
2022/10/02 06:26:59;;;;;;;4.70;1.17;;;12.70;99.90;;;;;;5019143;28;20453;-44
2022/10/02 06:29:31;;;;;;;3.10;1.90;;;12.70;99.90;;;;;;5022818;28;20445;-43
2022/10/02 06:32:10;;;;;;;2.57;1.47;;;12.70;99.90;;;;;;5032184;28;20448;-44
2022/10/02 06:34:36;;;;;;;3.30;1.70;;;12.60;99.90;;;;;;5017365;28;20460;-43
2022/10/02 06:37:28;;;;;;;4.00;1.80;;;12.60;99.90;;;;;;5013737;28;20472;-47
2022/10/02 06:40:41;;;;;;;1.70;1.50;;;12.60;99.90;;;;;;5014716;28;20445;-45
2022/10/02 06:43:21;;;;;;;5.60;1.90;;;12.60;99.90;;;;;;5016566;28;20540;-45
2022/10/02 06:45:57;;;;;;;3.47;1.53;;;12.60;99.90;;;;;;5015650;28;20460;-43
2022/10/02 06:48:30;;;;;;;2.60;1.90;;;12.50;99.90;;;;;;5020645;28;20464;-44
2022/10/02 06:51:05;;;;;;;3.77;2.03;;;12.60;99.90;;;;;;5021041;28;20787;-47
2022/10/02 06:53:56;;;;;;;6.27;2.03;;;12.70;99.90;;;;;;5001304;28;20445;-39
2022/10/02 06:56:37;;;;;;;4.43;2.00;;;12.70;99.90;;;;;;4999671;28;20458;-41
2022/10/02 06:59:19;;;;;;;5.03;2.20;;;12.70;99.90;;;;;;5019843;28;20919;-41
2022/10/02 07:01:55;;;;;;;2.87;2.00;;;12.80;99.90;;;;;;5020804;28;20563;-41
2022/10/02 07:04:41;;;;;;;9.33;2.43;;;12.90;99.90;;;;;;5020195;28;20444;-44
2022/10/02 07:07:21;;;;;;;8.80;2.00;;;12.90;99.90;;;;;;5020481;28;20440;-45
2022/10/02 07:10:11;;;;;;;4.30;1.73;;;12.90;99.90;;;;;;5021043;28;20436;-43
2022/10/02 07:12:52;;;;;;;3.50;2.00;;;12.90;99.90;;;;;;5020349;28;20445;-45
2022/10/02 07:15:43;;;;;;;6.10;1.93;;;13.00;99.90;;;;;;5020376;28;20465;-44
2022/10/02 07:18:20;;;;;;;2.13;1.73;;;13.00;99.90;;;;;;5017222;28;20488;-43
2022/10/02 07:20:58;;;;;;;7.00;2.70;;;13.00;99.90;;;;;;5020829;28;20441;-42
2022/10/02 07:23:43;;;;;;;6.20;2.27;;;13.00;99.90;;;;;;5020164;28;20425;-39
2022/10/02 07:26:27;;;;;;;4.67;2.30;;;13.00;99.90;;;;;;5020018;28;20532;-44
2022/10/02 07:29:01;;;;;;;4.60;2.60;;;13.00;99.90;;;;;;5020113;28;20437;-45
2022/10/02 07:31:40;;;;;;;10.37;3.43;;;13.10;99.90;;;;;;5019883;28;20781;-44
2022/10/02 07:34:21;;;;;;;3.93;2.80;;;13.10;99.90;;;;;;5020057;28;20433;-41
2022/10/02 07:36:58;;;;;;;5.20;2.53;;;13.10;99.90;;;;;;5020624;28;20892;-43
2022/10/02 07:39:42;;;;;;;4.87;3.20;;;13.10;99.90;;;;;;5020037;28;20476;-43
2022/10/02 07:42:23;;;;;;;6.33;2.53;;;13.20;99.90;;;;;;5019481;28;20461;-44
2022/10/02 07:45:07;;;;;;;3.07;2.63;;;13.30;99.90;;;;;;5019936;28;20793;-46
2022/10/02 07:47:50;;;;;;;6.70;2.60;;;13.40;99.90;;;;;;5019446;28;20468;-41
2022/10/02 07:50:25;;;;;;;6.07;3.17;;;13.50;99.90;;;;;;5019519;28;20444;-46
2022/10/02 07:52:58;;;;;;;3.83;2.47;;;13.60;99.90;;;;;;5018325;28;20472;-47
2022/10/02 07:55:26;;;;;;;4.70;3.10;;;13.80;99.90;;;;;;5019365;28;20437;-42
2022/10/02 07:58:03;;;;;;;2.87;2.50;;;13.90;99.90;;;;;;5019224;28;20493;-45
2022/10/02 08:00:34;;;;;;;7.60;3.10;;;14.10;99.90;;;;;;5018633;28;20933;-43
2022/10/02 08:03:07;;;;;;;10.07;2.90;;;14.20;99.90;;;;;;5019258;28;20476;-42
2022/10/02 08:05:40;;;;;;;2.97;2.70;;;14.50;99.90;;;;;;5018895;28;20500;-53
2022/10/02 08:08:14;;;;;;;10.53;3.40;;;14.60;99.90;;;;;;5019750;28;20426;-41
2022/10/02 08:10:43;;;;;;;7.63;3.20;;;14.80;99.90;;;;;;5018973;28;20948;-43
2022/10/02 08:13:15;;;;;;;7.00;2.80;;;14.80;99.90;;;;;;5019689;28;20456;-44
2022/10/02 08:15:44;;;;;;;3.50;2.03;;;14.80;99.90;;;;;;5019862;28;20472;-41
2022/10/02 08:18:20;;;;;;;6.50;3.50;;;14.80;99.90;;;;;;5019221;28;20520;-44
2022/10/02 08:20:48;;;;;;;5.00;2.80;;;14.80;99.90;;;;;;5019367;28;20601;-45
2022/10/02 08:23:22;;;;;;;6.20;2.87;;;14.90;99.90;;;;;;5018405;28;20456;-42
2022/10/02 08:25:57;;;;;;;4.97;3.30;;;15.00;99.90;;;;;;5018499;28;20480;-44
2022/10/02 08:28:29;;;;;;;10.70;3.10;;;15.10;99.90;;;;;;5018566;28;20749;-41
2022/10/02 08:30:57;;;;;;;8.47;2.80;;;15.20;99.90;;;;;;5019168;28;20429;-45
2022/10/02 08:33:25;;;;;;;8.60;3.47;;;15.10;99.90;;;;;;5018365;28;20429;-43
2022/10/02 08:36:19;;;;;;;13.50;3.20;;;15.30;99.90;;;;;;5018034;28;20461;-44
2022/10/02 08:38:50;;;;;;;6.00;2.90;;;15.50;99.90;;;;;;5017892;28;20469;-41
2022/10/02 08:41:47;;;;;;;8.17;3.60;;;15.60;99.90;;;;;;5017964;28;20457;-46
2022/10/02 08:44:44;;;;;;;5.00;3.13;;;15.70;99.90;;;;;;5017613;28;20445;-45
2022/10/02 08:47:53;;;;;;;11.13;3.60;;;15.70;99.90;;;;;;5001466;28;20916;-46
2022/10/02 08:51:08;;;;;;;11.43;3.13;;;15.60;99.90;;;;;;5018064;28;20424;-48
2022/10/02 08:54:15;;;;;;;5.97;2.43;;;15.70;99.90;;;;;;4957298;29;20503;-45
2022/10/02 08:57:01;;;;;;;6.10;2.73;;;15.70;99.90;;;;;;5017716;28;20447;-42
2022/10/02 09:00:04;;;;;;;4.80;2.53;;;15.70;99.90;;;;;;5018225;28;20499;-46
2022/10/02 09:03:10;;;;;;;5.07;3.00;;;15.90;99.90;;;;;;5004390;28;20475;-48
2022/10/02 09:06:05;;;;;;;9.53;3.30;;;16.10;99.90;;;;;;5016445;28;20987;-41
2022/10/02 09:09:18;;;;;;;5.20;3.07;;;16.10;99.90;;;;;;5017768;28;20422;-44
2022/10/02 09:12:11;;;;;;;3.90;2.50;;;16.40;99.90;;;;;;5017276;28;20488;-41
2022/10/02 09:14:50;;;;;;;5.40;2.80;;;16.50;99.90;;;;;;5017245;28;20869;-41
2022/10/02 09:17:44;;;;;;;4.30;2.90;;;16.50;99.90;;;;;;5017565;28;20771;-43
2022/10/02 09:20:40;;;;;;;3.67;2.30;;;16.30;99.90;;;;;;5017522;28;20434;-42
2022/10/02 09:23:44;;;;;;;4.00;3.10;;;16.30;99.90;;;;;;5017239;28;20429;-42
2022/10/02 09:26:19;;;;;;;5.03;2.97;;;16.30;99.90;;;;;;5017316;28;20441;-45
2022/10/02 09:29:05;;;;;;;7.83;3.23;;;16.30;99.90;;;;;;5016969;28;20468;-48
2022/10/02 09:32:08;;;;;;;4.50;2.93;;;16.30;99.90;;;;;;5017227;28;20803;-45
2022/10/02 09:35:07;;;;;;;7.10;4.33;;;16.20;99.90;;;;;;5016946;28;20429;-45
2022/10/02 09:38:20;;;;;;;4.93;3.10;;;15.90;99.90;;;;;;5017095;28;20535;-44
2022/10/02 09:41:15;;;;;;;7.77;3.40;;;15.90;99.90;;;;;;5000293;28;20445;-41
2022/10/02 09:44:15;;;;;;;6.43;2.80;;;15.80;99.90;;;;;;5003324;28;20481;-43
2022/10/02 09:47:23;;;;;;;5.10;2.77;;;16.00;99.90;;;;;;5000725;28;20460;-45
2022/10/02 09:50:22;;;;;;;6.53;3.50;;;16.40;99.90;;;;;;5016486;28;21100;-48
2022/10/02 09:53:21;;;;;;;5.90;2.90;;;17.30;99.90;;;;;;5016309;28;20429;-44
2022/10/02 09:56:38;;;;;;;4.80;2.70;;;17.70;99.90;;;;;;4973215;28;20569;-43
2022/10/02 09:59:37;;;;;;;3.53;2.80;;;18.00;99.90;;;;;;5016183;28;20486;-44
2022/10/02 10:02:33;;;;;;;10.60;3.37;;;18.20;99.90;;;;;;5015924;28;20836;-44
2022/10/02 10:05:37;;;;;;;6.90;3.13;;;18.20;99.90;;;;;;5016104;28;20449;-43
2022/10/02 10:08:42;;;;;;;8.93;2.37;;;18.50;99.90;;;;;;5016046;28;20438;-44
2022/10/02 10:11:38;;;;;;;6.47;2.30;;;18.30;99.90;;;;;;5016295;28;20802;-42
2022/10/02 10:14:51;;;;;;;4.50;2.40;;;17.90;99.90;;;;;;5016700;28;20445;-42
2022/10/02 10:17:59;;;;;;;6.47;2.37;;;17.50;99.90;;;;;;5019418;28;20472;-44
2022/10/02 10:20:53;;;;;;;6.13;2.50;;;17.10;99.90;;;;;;4998227;28;20433;-44
2022/10/02 10:23:48;;;;;;;8.07;2.50;;;16.70;99.90;;;;;;4994198;28;20573;-44
2022/10/02 10:26:44;;;;;;;6.33;2.53;;;16.40;99.90;;;;;;4987751;28;20456;-49
2022/10/02 10:29:37;;;;;;;8.77;2.63;;;16.00;99.90;;;;;;5020872;28;20460;-42
2022/10/02 10:32:39;;;;;;;3.30;2.03;;;15.60;99.90;;;;;;5021185;28;20441;-40
2022/10/02 10:35:41;;;;;;;3.73;2.03;;;15.30;99.90;;;;;;5021073;28;20468;-46
2022/10/02 10:38:31;;;;;;;11.67;2.03;;;15.20;99.90;;;;;;5004372;28;20797;-39
2022/10/02 10:41:25;;;;;;;2.90;2.10;;;15.00;99.90;;;;;;5020411;28;20532;-43
2022/10/02 10:44:09;;;;;;;2.63;2.20;;;15.00;99.90;;;;;;5020608;28;20461;-43
2022/10/02 10:46:52;;;;;;;13.57;2.60;;;15.20;99.90;;;;;;5020620;28;20448;-47
2022/10/02 10:49:43;;;;;;;3.17;2.60;;;15.50;99.90;;;;;;5020542;28;20437;-42
2022/10/02 10:52:21;;;;;;;5.57;3.13;;;16.00;99.90;;;;;;5020343;28;20463;-44
2022/10/02 10:54:55;;;;;;;3.83;2.23;;;16.10;99.90;;;;;;5020578;28;20447;-45
2022/10/02 10:57:35;;;;;;;3.10;1.90;;;16.00;99.90;;;;;;5020433;28;20428;-45
2022/10/02 11:00:23;;;;;;;8.73;2.67;;;15.80;99.90;;;;;;5020129;28;20870;-45
2022/10/02 11:03:39;;;;;;;2.63;2.40;;;15.80;99.90;;;;;;5019918;28;20429;-41
2022/10/02 11:06:38;;;;;;;4.23;2.40;;;15.70;99.90;;;;;;5020009;28;20453;-43
2022/10/02 11:09:30;;;;;;;3.60;2.80;;;15.70;99.90;;;;;;5003771;28;20805;-42
2022/10/02 11:12:15;;;;;;;7.43;2.30;;;15.80;99.90;;;;;;5019473;28;20435;-44
2022/10/02 11:14:55;;;;;;;5.30;2.27;;;16.00;99.90;;;;;;5020178;28;20511;-45
2022/10/02 11:17:43;;;;;;;2.93;2.57;;;16.20;99.90;;;;;;5019950;28;20445;-44
2022/10/02 11:20:51;;;;;;;4.37;2.40;;;16.40;99.90;;;;;;5019335;28;20790;-45
2022/10/02 11:23:49;;;;;;;4.63;2.37;;;16.40;99.90;;;;;;5008771;28;20472;-45
2022/10/02 11:26:45;;;;;;;2.57;2.20;;;16.60;99.90;;;;;;5006188;28;20481;-45
2022/10/02 11:29:54;;;;;;;7.57;3.00;;;16.50;99.90;;;;;;5017859;28;20472;-44
2022/10/02 11:32:46;;;;;;;5.33;2.90;;;16.40;99.90;;;;;;5019432;28;20440;-47
2022/10/02 11:35:22;;;;;;;6.07;3.00;;;16.00;99.90;;;;;;5018877;28;20469;-47
2022/10/02 11:38:21;;;;;;;6.17;3.20;;;15.90;99.90;;;;;;5019706;28;20496;-46
2022/10/02 11:41:16;;;;;;;6.70;3.10;;;15.80;99.90;;;;;;5017216;28;20564;-43
2022/10/02 11:44:15;;;;;;;4.73;2.90;;;15.70;99.90;;;;;;5019231;28;20437;-42
2022/10/02 11:47:08;;;;;;;10.00;3.63;;;15.60;99.90;;;;;;5018377;28;21008;-47
2022/10/02 11:50:09;;;;;;;5.27;3.10;;;15.50;99.90;;;;;;5018203;28;20847;-42
2022/10/02 11:53:00;;;;;;;3.00;2.70;;;15.60;99.90;;;;;;5006463;28;20461;-45
2022/10/02 11:55:37;;;;;;;3.33;2.93;;;15.70;99.90;;;;;;4981961;28;20580;-47
2022/10/02 11:58:18;;;;;;;5.83;2.80;;;15.80;99.90;;;;;;5019092;28;20465;-45
2022/10/02 12:01:23;;;;;;;2.80;2.60;;;15.80;99.90;;;;;;5018780;28;20821;-43
2022/10/02 12:04:02;;;;;;;6.20;3.93;;;16.00;99.90;;;;;;4938886;29;20432;-44
2022/10/02 12:06:54;;;;;;;7.60;2.97;;;16.00;99.90;;;;;;5010884;28;20465;-42
2022/10/02 12:09:34;;;;;;;4.50;2.07;;;16.20;99.90;;;;;;5018579;28;20490;-45
2022/10/02 12:12:15;;;;;;;5.93;3.07;;;16.20;99.90;;;;;;5018334;28;20436;-48
2022/10/02 12:14:49;;;;;;;3.67;1.80;;;16.30;99.90;;;;;;5018261;28;20511;-47
2022/10/02 12:17:52;;;;;;;3.20;2.77;;;16.30;99.90;;;;;;5018343;28;20452;-47
2022/10/02 12:29:24;;;;;;;3.60;2.83;;;16.40;99.90;;;;;;5018257;28;20421;-47
2022/10/02 12:31:59;;;;;;;5.27;2.20;;;16.60;99.90;;;;;;5017741;28;20468;-42
2022/10/02 12:34:47;;;;;;;5.10;2.33;;;16.70;99.90;;;;;;5018184;28;20452;-46
2022/10/02 12:37:18;;;;;;;5.93;2.50;;;16.90;99.90;;;;;;5017823;28;20445;-42
2022/10/02 12:39:55;;;;;;;8.37;2.87;;;17.00;99.90;;;;;;5016784;28;20580;-45
2022/10/02 12:42:49;;;;;;;2.70;1.90;;;17.00;99.90;;;;;;5017631;28;20468;-45
2022/10/02 12:45:49;;;;;;;4.10;1.90;;;16.90;99.90;;;;;;5017702;28;20448;-46
2022/10/02 12:48:30;;;;;;;3.20;2.37;;;16.70;99.90;;;;;;5017622;28;20543;-43
2022/10/02 12:51:21;;;;;;;2.93;2.63;;;16.60;99.90;;;;;;5017880;28;20432;-45
2022/10/02 12:54:28;;;;;;;2.63;2.20;;;16.40;99.90;;;;;;5018238;28;20509;-44
2022/10/02 12:57:52;;;;;;;3.80;2.70;;;16.30;99.90;;;;;;5017704;28;20464;-45
2022/10/02 13:00:26;;;;;;;2.57;2.00;;;16.10;99.90;;;;;;5005516;28;20489;-46
2022/10/02 13:03:28;;;;;;;2.50;2.00;;;16.00;99.90;;;;;;5017626;28;20451;-41
2022/10/02 13:06:35;;;;;;;7.93;2.07;;;16.00;99.90;;;;;;5017556;28;20448;-43
2022/10/02 13:09:19;;;;;;;7.00;2.53;;;16.10;99.90;;;;;;5017627;28;20469;-47
2022/10/02 13:12:02;;;;;;;2.60;2.07;;;16.20;99.90;;;;;;5017570;28;20425;-45
2022/10/02 13:14:52;;;;;;;5.13;1.37;;;16.40;99.90;;;;;;5017228;28;20465;-42
2022/10/02 13:17:32;;;;;;;4.90;1.87;;;16.60;99.90;;;;;;5017381;28;20519;-40
2022/10/02 13:20:10;;;;;;;1.70;1.37;;;16.90;99.90;;;;;;5017343;28;20823;-41
2022/10/02 13:22:45;;;;;;;7.17;1.93;;;17.20;99.90;;;;;;5017338;28;20512;-44
2022/10/02 13:25:24;;;;;;;2.70;1.67;;;17.50;99.90;;;;;;5016842;28;20433;-50
2022/10/02 13:28:01;;;;;;;3.87;1.40;;;17.80;99.90;;;;;;5016892;28;20444;-47
2022/10/02 13:30:37;;;;;;;3.90;2.10;;;17.90;99.90;;;;;;5016595;28;20433;-41
2022/10/02 13:33:19;;;;;;;4.27;1.57;;;18.00;99.90;;;;;;5016829;28;20433;-44
2022/10/02 13:35:56;;;;;;;3.47;1.57;;;17.80;99.90;;;;;;5016623;28;20425;-46
2022/10/02 13:38:47;;;;;;;5.57;1.57;;;17.60;99.90;;;;;;5016908;28;20555;-45
2022/10/02 13:41:28;;;;;;;6.27;1.60;;;17.50;99.90;;;;;;5016617;28;20958;-42
2022/10/02 13:44:13;;;;;;;4.10;1.57;;;17.40;99.90;;;;;;5016663;28;20477;-44
2022/10/02 13:46:54;;;;;;;2.30;1.47;;;17.30;99.90;;;;;;5017152;28;20445;-43
2022/10/02 13:49:36;;;;;;;3.07;1.83;;;17.20;99.90;;;;;;5016744;28;21000;-45
2022/10/02 13:52:18;;;;;;;3.43;1.57;;;17.10;99.90;;;;;;5016006;28;20897;-44
2022/10/02 13:54:58;;;;;;;3.23;1.30;;;17.00;99.90;;;;;;5016787;28;20444;-43
2022/10/02 13:57:40;;;;;;;6.10;1.87;;;17.10;99.90;;;;;;5016174;28;20426;-42
2022/10/02 14:00:13;;;;;;;6.20;1.43;;;17.40;99.90;;;;;;5016467;28;20954;-44
2022/10/02 14:02:51;;;;;;;5.60;1.63;;;17.50;99.90;;;;;;5016112;28;20495;-45
2022/10/02 14:05:32;;;;;;;3.73;1.70;;;17.60;99.90;;;;;;5016143;28;20802;-41
2022/10/02 14:08:12;;;;;;;2.30;1.40;;;17.60;99.90;;;;;;5016616;28;20443;-42
2022/10/02 14:10:53;;;;;;;2.37;1.50;;;17.50;99.90;;;;;;5016858;28;20473;-44